Terminal Aerodrome Forecast
Issued by NWS St Louis, MO

Home | Current Version | Previous Version | Text Only | Print | Product List | Glossary On
Versions: 1 2 3 4 5 6 7 8 9 10 11 12 13 14 15 16 17 18 19 20 21 22 23 24 25 26 27
000
FTUS43 KLSX 120500
TAFSTL
TAF
KSTL 120520Z 1206/1312 04008KT P6SM OVC018
      TEMPO 1209/1213 4SM -DZ BR OVC010
     FM121800 01008KT P6SM OVC020
     FM130900 34008KT P6SM SCT025=

USA.gov is the U.S. government's official web portal to all federal, state and local government web resources and services.